Share

Cortiñas, Spain

Vigo (LEVX) Elev 840 ft | 42.24 °N, 8.62 °W | Change Station

Current weather conditions updated 24 minutes ago

Mostly Cloudy
Mostly Cloudy
54 °F
Feels Like 54 °F
N
12
Wind Variable Wind from WNW
Sunrise 7:47 AM
Sunset 9:20 PM
Moon Waning Gibbous

Tomorrow is forecast to be nearly the same temperature as today. Showers possible.

Pressure 29.77 in
Visibility 6.2 miles
Clouds Few 500 ft
Scattered Clouds 1200 ft
Mostly Cloudy 3200 ft
Dew Point 50 °F
Humidity 88%
Rainfall 0.00 in
Snow Depth Not available.
UV 0 out of 16
Pollen Not available.
Air Quality Not available.
Flu Activity Not available.
METAR LEVX 191830Z 29010KT 250V330 9999 FEW005 SCT012 BKN032 12/10 Q1008 NOSIG

More Conditions Fewer Conditions

Pressure 29.77 in
Visibility 6.2 miles
Clouds Few 500 ft
Scattered Clouds 1200 ft
Mostly Cloudy 3200 ft
Dew Point 50 °F
Humidity 88%
Rainfall 0.00 in
Snow Depth Not available.
UV 0 out of 16
Pollen Not available.
Air Quality Not available.
Flu Activity Not available.
METAR LEVX 191830Z 29010KT 250V330 9999 FEW005 SCT012 BKN032 12/10 Q1008 NOSIG

More Conditions Fewer Conditions

10-Day Weather Forecast

Almanac

Astronomy

Apr. 19, 2014 Rise Set
Actual Time 7:47 AM CEST 9:20 PM CEST
Civil Twilight 7:18 AM CEST 9:49 PM CEST
Nautical Twilight 6:42 AM CEST 10:25 PM CEST
Astronomical Twilight 6:05 AM CEST 11:03 PM CEST
Moon 12:53 AM CEST 10:50 AM CEST
Length of Visible Light 14h 31m
Length of Day
13h 32m
Tomorrow will be 2m 40s longer.
Waning Gibbous, 77% of the Moon is Illuminated
Today
Waning Gibbous
Apr 22
Last Quarter
Apr 29
New
May 6
First Quarter
May 14
Full

Today's Extremes

Country Highs Country Lows

Community

  • Piriapolis
    Piriapolis
  • A Glorious Morning
    A Glorious Morning
  • Tender Rays Of Hope
    Tender Rays Of Hope
  • Bleeding Hearts
    Bleeding Hearts
  • Sunset Silhouettes
    Sunset Silhouettes

WunderPhotos

Upload Photos

1,702,840 photos uploaded!

WunderBlogs® & News

Nearby

Snow Depth

Not available.

Coastal Water Temperatures

Place Temperature
No Stations Reporting

Earthquake Activity

City Distance Mag. Time & Date
No recent earthquake activity has been reported nearby.
Minimum magnitude displayed is 2.5.

Nearby Weather Stations

Station Location Temp. Dew Point Humidity Wind Precip. Elev Updated Type
Coia, Vigo-Coia 58.3 °F 50 °F 75% North  at  2.0 mph 0.00 in / hr 157 ft 8:51 PM CEST Normal
Melgaco, Melgaco 54.7 °F 50 °F 83% SW  at  1.0 mph 0.00 in / hr 387 ft 7:52 PM WEST Normal
O Grove, O Grove 58.8 °F 34 °F 39% North  at  - 0.00 in / hr 39 ft 8:53 PM CEST Rapid Fire

Show More Stations Show Fewer Stations

What do you think?

We're not finished. Please let us know what you like, what you don't like, and what you are still missing.